sensor_id;sensor_type;location;lat;lon;timestamp;pressure;altitude;pressure_sealevel;temperature;humidity
75668;BME280;64266;48.798;44.756;2023-12-07T00:03:18;103198.59;;;-0.55;63.59
75668;BME280;64266;48.798;44.756;2023-12-07T00:08:21;103152.91;;;-0.76;62.24
75668;BME280;64266;48.798;44.756;2023-12-07T00:13:24;103175.66;;;-0.64;62.94
75668;BME280;64266;48.798;44.756;2023-12-07T00:18:28;103198.88;;;-0.60;62.14
75668;BME280;64266;48.798;44.756;2023-12-07T00:23:31;103162.91;;;-0.84;62.73
75668;BME280;64266;48.798;44.756;2023-12-07T00:28:34;103113.78;;;-1.06;61.83
75668;BME280;64266;48.798;44.756;2023-12-07T00:33:38;103158.28;;;-0.95;62.40
75668;BME280;64266;48.798;44.756;2023-12-07T00:38:41;103146.72;;;-1.05;62.12
75668;BME280;64266;48.798;44.756;2023-12-07T00:43:44;103140.56;;;-1.20;62.63
75668;BME280;64266;48.798;44.756;2023-12-07T00:48:47;103080.00;;;-1.54;62.82
75668;BME280;64266;48.798;44.756;2023-12-07T00:53:51;103135.84;;;-1.13;62.77
75668;BME280;64266;48.798;44.756;2023-12-07T00:58:54;103119.25;;;-1.26;63.49
75668;BME280;64266;48.798;44.756;2023-12-07T01:03:57;103142.75;;;-1.12;63.27
75668;BME280;64266;48.798;44.756;2023-12-07T01:09:01;103095.03;;;-1.44;62.63
75668;BME280;64266;48.798;44.756;2023-12-07T01:14:06;103170.78;;;-1.01;63.18
75668;BME280;64266;48.798;44.756;2023-12-07T01:19:10;103070.28;;;-1.51;61.69
75668;BME280;64266;48.798;44.756;2023-12-07T01:24:15;103113.94;;;-1.25;62.23
75668;BME280;64266;48.798;44.756;2023-12-07T01:29:19;103138.22;;;-1.24;61.63
75668;BME280;64266;48.798;44.756;2023-12-07T01:34:22;103061.16;;;-1.75;61.83
75668;BME280;64266;48.798;44.756;2023-12-07T01:39:26;103158.72;;;-1.18;61.70
75668;BME280;64266;48.798;44.756;2023-12-07T01:44:29;103157.59;;;-1.30;61.44
75668;BME280;64266;48.798;44.756;2023-12-07T01:49:33;103119.13;;;-1.40;61.89
75668;BME280;64266;48.798;44.756;2023-12-07T01:54:38;103151.91;;;-1.21;62.48
75668;BME280;64266;48.798;44.756;2023-12-07T01:59:41;103155.25;;;-1.19;62.35
75668;BME280;64266;48.798;44.756;2023-12-07T02:04:45;103124.06;;;-1.51;62.01
75668;BME280;64266;48.798;44.756;2023-12-07T02:09:48;103137.50;;;-1.43;62.22
75668;BME280;64266;48.798;44.756;2023-12-07T02:14:52;103138.78;;;-1.35;62.12
75668;BME280;64266;48.798;44.756;2023-12-07T02:20:13;103190.66;;;-0.99;63.40
75668;BME280;64266;48.798;44.756;2023-12-07T02:25:24;103114.59;;;-1.52;62.08
75668;BME280;64266;48.798;44.756;2023-12-07T02:30:29;103104.47;;;-1.74;62.85
75668;BME280;64266;48.798;44.756;2023-12-07T02:35:33;103091.63;;;-1.77;63.44
75668;BME280;64266;48.798;44.756;2023-12-07T02:40:37;103199.19;;;-1.13;62.95
75668;BME280;64266;48.798;44.756;2023-12-07T02:45:42;103166.69;;;-1.21;63.22
75668;BME280;64266;48.798;44.756;2023-12-07T02:50:45;103097.25;;;-1.69;61.97
75668;BME280;64266;48.798;44.756;2023-12-07T02:55:48;103106.28;;;-1.92;63.19
75668;BME280;64266;48.798;44.756;2023-12-07T03:00:51;103062.38;;;-1.98;64.84
75668;BME280;64266;48.798;44.756;2023-12-07T03:05:54;103175.22;;;-1.35;64.04
75668;BME280;64266;48.798;44.756;2023-12-07T03:10:57;103090.72;;;-1.93;63.84
75668;BME280;64266;48.798;44.756;2023-12-07T03:16:01;103142.25;;;-1.67;63.27
75668;BME280;64266;48.798;44.756;2023-12-07T03:21:04;103084.31;;;-1.86;63.56
75668;BME280;64266;48.798;44.756;2023-12-07T03:26:07;103121.22;;;-1.80;63.27
75668;BME280;64266;48.798;44.756;2023-12-07T03:31:10;103187.19;;;-1.48;62.95
75668;BME280;64266;48.798;44.756;2023-12-07T03:36:13;103149.53;;;-1.74;63.87
75668;BME280;64266;48.798;44.756;2023-12-07T03:41:16;103159.06;;;-1.57;64.77
75668;BME280;64266;48.798;44.756;2023-12-07T03:46:20;103152.66;;;-1.67;63.78
75668;BME280;64266;48.798;44.756;2023-12-07T03:51:23;103156.84;;;-1.65;64.21
75668;BME280;64266;48.798;44.756;2023-12-07T03:56:29;103173.78;;;-1.73;64.18
75668;BME280;64266;48.798;44.756;2023-12-07T04:01:32;103091.38;;;-2.05;64.35
75668;BME280;64266;48.798;44.756;2023-12-07T04:06:36;103133.00;;;-1.73;64.24
75668;BME280;64266;48.798;44.756;2023-12-07T04:11:39;103096.94;;;-1.96;64.01
75668;BME280;64266;48.798;44.756;2023-12-07T04:16:42;103164.16;;;-1.55;63.62
75668;BME280;64266;48.798;44.756;2023-12-07T04:21:45;103168.66;;;-1.42;64.04
75668;BME280;64266;48.798;44.756;2023-12-07T04:26:49;103215.56;;;-1.26;63.26
75668;BME280;64266;48.798;44.756;2023-12-07T04:31:52;103161.72;;;-1.58;63.63
75668;BME280;64266;48.798;44.756;2023-12-07T04:36:56;103142.94;;;-1.63;63.00
75668;BME280;64266;48.798;44.756;2023-12-07T04:41:59;103162.06;;;-1.65;63.81
75668;BME280;64266;48.798;44.756;2023-12-07T04:47:03;103189.28;;;-1.54;63.60
75668;BME280;64266;48.798;44.756;2023-12-07T04:52:06;103219.88;;;-1.42;63.36
75668;BME280;64266;48.798;44.756;2023-12-07T04:57:10;103239.59;;;-1.38;63.17
75668;BME280;64266;48.798;44.756;2023-12-07T05:02:16;103279.19;;;-1.16;62.99
75668;BME280;64266;48.798;44.756;2023-12-07T05:07:20;103273.78;;;-1.29;62.58
75668;BME280;64266;48.798;44.756;2023-12-07T05:18:26;103204.78;;;-1.53;62.55
75668;BME280;64266;48.798;44.756;2023-12-07T05:23:31;103274.28;;;-1.05;63.03
75668;BME280;64266;48.798;44.756;2023-12-07T05:28:40;103252.34;;;-1.01;62.77
75668;BME280;64266;48.798;44.756;2023-12-07T05:33:49;103245.34;;;-1.16;62.12
75668;BME280;64266;48.798;44.756;2023-12-07T05:38:59;103182.59;;;-1.43;62.72
75668;BME280;64266;48.798;44.756;2023-12-07T05:44:03;103188.25;;;-1.19;62.28
75668;BME280;64266;48.798;44.756;2023-12-07T05:49:06;103178.66;;;-1.34;60.92
75668;BME280;64266;48.798;44.756;2023-12-07T05:54:11;103233.13;;;-0.98;61.85
75668;BME280;64266;48.798;44.756;2023-12-07T05:59:16;103261.47;;;-0.92;61.66
75668;BME280;64266;48.798;44.756;2023-12-07T06:04:23;103211.28;;;-1.12;61.66
75668;BME280;64266;48.798;44.756;2023-12-07T06:09:26;103208.78;;;-0.97;61.16
75668;BME280;64266;48.798;44.756;2023-12-07T06:14:29;103257.78;;;-0.73;61.11
75668;BME280;64266;48.798;44.756;2023-12-07T06:19:32;103246.50;;;-0.89;60.80
75668;BME280;64266;48.798;44.756;2023-12-07T06:24:35;103221.63;;;-0.94;62.28
75668;BME280;64266;48.798;44.756;2023-12-07T06:29:38;103280.34;;;-0.56;60.84
75668;BME280;64266;48.798;44.756;2023-12-07T06:34:42;103296.47;;;-0.49;60.36
75668;BME280;64266;48.798;44.756;2023-12-07T06:39:46;103273.53;;;-0.59;61.29
75668;BME280;64266;48.798;44.756;2023-12-07T06:44:51;103199.78;;;-0.92;61.36
75668;BME280;64266;48.798;44.756;2023-12-07T06:49:55;103245.78;;;-0.60;60.63
75668;BME280;64266;48.798;44.756;2023-12-07T06:54:59;103264.69;;;-0.40;61.80
75668;BME280;64266;48.798;44.756;2023-12-07T07:00:04;103268.72;;;-0.50;60.41
75668;BME280;64266;48.798;44.756;2023-12-07T07:05:13;103239.03;;;-0.79;60.60
75668;BME280;64266;48.798;44.756;2023-12-07T07:10:22;103278.13;;;-0.48;60.07
75668;BME280;64266;48.798;44.756;2023-12-07T07:15:28;103282.84;;;-0.55;59.42
75668;BME280;64266;48.798;44.756;2023-12-07T07:20:31;103203.75;;;-0.85;60.10
75668;BME280;64266;48.798;44.756;2023-12-07T07:25:34;103255.19;;;-0.41;59.82
75668;BME280;64266;48.798;44.756;2023-12-07T07:30:43;103219.56;;;-0.72;60.25
75668;BME280;64266;48.798;44.756;2023-12-07T07:35:46;103235.44;;;-0.45;60.05
75668;BME280;64266;48.798;44.756;2023-12-07T07:40:49;103217.78;;;-0.56;59.28
75668;BME280;64266;48.798;44.756;2023-12-07T07:45:52;103226.25;;;-0.37;59.71
75668;BME280;64266;48.798;44.756;2023-12-07T07:50:55;103187.28;;;-0.70;59.69
75668;BME280;64266;48.798;44.756;2023-12-07T07:55:58;103205.28;;;-0.65;59.89
75668;BME280;64266;48.798;44.756;2023-12-07T08:01:01;103175.09;;;-0.69;59.73
75668;BME280;64266;48.798;44.756;2023-12-07T08:06:04;103223.16;;;-0.28;59.66
75668;BME280;64266;48.798;44.756;2023-12-07T08:11:07;103200.09;;;-0.35;58.84
75668;BME280;64266;48.798;44.756;2023-12-07T08:16:12;103202.22;;;-0.42;59.27
75668;BME280;64266;48.798;44.756;2023-12-07T08:21:45;103252.78;;;0.01;59.43
75668;BME280;64266;48.798;44.756;2023-12-07T08:26:55;103241.50;;;0.00;59.00
75668;BME280;64266;48.798;44.756;2023-12-07T08:32:25;103174.47;;;-0.43;57.29
75668;BME280;64266;48.798;44.756;2023-12-07T08:37:29;103200.47;;;-0.12;57.22
75668;BME280;64266;48.798;44.756;2023-12-07T08:42:32;103232.56;;;0.05;58.67
75668;BME280;64266;48.798;44.756;2023-12-07T08:47:35;103228.31;;;-0.12;58.65
75668;BME280;64266;48.798;44.756;2023-12-07T08:52:39;103234.75;;;0.12;59.22
75668;BME280;64266;48.798;44.756;2023-12-07T08:57:53;103230.44;;;0.11;57.96
75668;BME280;64266;48.798;44.756;2023-12-07T09:02:56;103160.09;;;-0.05;57.20
75668;BME280;64266;48.798;44.756;2023-12-07T09:07:59;103200.50;;;0.32;57.54
75668;BME280;64266;48.798;44.756;2023-12-07T09:13:02;103176.09;;;0.33;56.56
75668;BME280;64266;48.798;44.756;2023-12-07T09:18:06;103157.22;;;0.14;56.37
75668;BME280;64266;48.798;44.756;2023-12-07T09:23:09;103182.31;;;0.31;56.33
75668;BME280;64266;48.798;44.756;2023-12-07T09:28:12;103232.22;;;0.69;56.61
75668;BME280;64266;48.798;44.756;2023-12-07T09:33:15;103216.75;;;0.66;56.58
75668;BME280;64266;48.798;44.756;2023-12-07T09:38:20;103213.38;;;0.49;56.56
75668;BME280;64266;48.798;44.756;2023-12-07T09:43:23;103168.22;;;0.05;55.88
75668;BME280;64266;48.798;44.756;2023-12-07T09:48:27;103200.13;;;0.38;56.13
75668;BME280;64266;48.798;44.756;2023-12-07T09:53:36;103178.28;;;0.25;56.02
75668;BME280;64266;48.798;44.756;2023-12-07T09:58:40;103208.16;;;0.49;56.25
75668;BME280;64266;48.798;44.756;2023-12-07T10:03:47;103131.81;;;-0.12;55.88
75668;BME280;64266;48.798;44.756;2023-12-07T10:09:03;103229.31;;;0.45;56.60
75668;BME280;64266;48.798;44.756;2023-12-07T10:14:12;103224.34;;;0.26;56.49
75668;BME280;64266;48.798;44.756;2023-12-07T10:19:19;103150.88;;;0.04;55.88
75668;BME280;64266;48.798;44.756;2023-12-07T10:24:33;103191.81;;;0.32;55.60
75668;BME280;64266;48.798;44.756;2023-12-07T10:29:44;103172.91;;;0.28;56.51
75668;BME280;64266;48.798;44.756;2023-12-07T10:34:58;103143.34;;;-0.01;54.94
75668;BME280;64266;48.798;44.756;2023-12-07T10:40:04;103242.47;;;0.58;55.18
75668;BME280;64266;48.798;44.756;2023-12-07T10:45:08;103182.34;;;0.45;55.13
75668;BME280;64266;48.798;44.756;2023-12-07T10:50:21;103232.78;;;0.60;55.19
75668;BME280;64266;48.798;44.756;2023-12-07T10:55:28;103238.44;;;0.38;55.11
75668;BME280;64266;48.798;44.756;2023-12-07T11:00:33;103228.28;;;0.47;55.64
75668;BME280;64266;48.798;44.756;2023-12-07T11:05:50;103244.72;;;0.64;55.63
75668;BME280;64266;48.798;44.756;2023-12-07T11:16:13;103206.28;;;0.37;54.58
75668;BME280;64266;48.798;44.756;2023-12-07T11:21:17;103194.63;;;0.29;55.55
75668;BME280;64266;48.798;44.756;2023-12-07T11:26:23;103120.59;;;0.02;56.47
75668;BME280;64266;48.798;44.756;2023-12-07T11:31:27;103181.78;;;0.40;55.90
75668;BME280;64266;48.798;44.756;2023-12-07T11:36:30;103241.16;;;0.50;56.30
75668;BME280;64266;48.798;44.756;2023-12-07T11:41:44;103240.97;;;0.39;56.33
75668;BME280;64266;48.798;44.756;2023-12-07T11:46:48;103143.25;;;-0.29;56.36
75668;BME280;64266;48.798;44.756;2023-12-07T11:51:51;103203.31;;;-0.01;57.29
75668;BME280;64266;48.798;44.756;2023-12-07T11:56:55;103248.06;;;0.22;57.73
75668;BME280;64266;48.798;44.756;2023-12-07T12:01:59;103166.34;;;-0.52;58.14
75668;BME280;64266;48.798;44.756;2023-12-07T12:07:05;103214.31;;;-0.25;57.64
75668;BME280;64266;48.798;44.756;2023-12-07T12:12:08;103229.50;;;-0.18;58.34
75668;BME280;64266;48.798;44.756;2023-12-07T12:17:15;103265.25;;;-0.04;57.99
75668;BME280;64266;48.798;44.756;2023-12-07T12:22:26;103226.25;;;-0.37;58.55
75668;BME280;64266;48.798;44.756;2023-12-07T12:27:29;103267.34;;;-0.11;59.11
75668;BME280;64266;48.798;44.756;2023-12-07T12:32:46;103272.47;;;-0.09;58.45
75668;BME280;64266;48.798;44.756;2023-12-07T12:37:49;103286.38;;;-0.24;58.71
75668;BME280;64266;48.798;44.756;2023-12-07T12:42:52;103257.72;;;-0.56;59.15
75668;BME280;64266;48.798;44.756;2023-12-07T12:47:58;103284.38;;;-0.50;60.16
75668;BME280;64266;48.798;44.756;2023-12-07T12:53:13;103249.13;;;-0.73;59.63
75668;BME280;64266;48.798;44.756;2023-12-07T12:58:16;103280.16;;;-0.53;59.86
75668;BME280;64266;48.798;44.756;2023-12-07T13:03:20;103271.38;;;-0.68;60.47
75668;BME280;64266;48.798;44.756;2023-12-07T13:08:23;103278.94;;;-0.79;59.82
75668;BME280;64266;48.798;44.756;2023-12-07T13:13:26;103307.41;;;-0.59;59.90
75668;BME280;64266;48.798;44.756;2023-12-07T13:18:29;103273.81;;;-0.96;60.21
75668;BME280;64266;48.798;44.756;2023-12-07T13:23:32;103248.66;;;-1.13;60.83
75668;BME280;64266;48.798;44.756;2023-12-07T13:28:35;103281.56;;;-0.79;60.13
75668;BME280;64266;48.798;44.756;2023-12-07T13:33:38;103281.19;;;-0.88;61.12
75668;BME280;64266;48.798;44.756;2023-12-07T13:38:55;103308.03;;;-0.71;61.08
75668;BME280;64266;48.798;44.756;2023-12-07T13:43:58;103326.69;;;-0.78;61.20
75668;BME280;64266;48.798;44.756;2023-12-07T13:49:04;103311.81;;;-0.76;61.89
75668;BME280;64266;48.798;44.756;2023-12-07T13:54:10;103282.47;;;-0.95;61.40
75668;BME280;64266;48.798;44.756;2023-12-07T13:59:33;103336.38;;;-0.65;61.56
75668;BME280;64266;48.798;44.756;2023-12-07T14:04:38;103316.59;;;-1.17;61.65
75668;BME280;64266;48.798;44.756;2023-12-07T14:09:44;103303.88;;;-1.40;61.31
75668;BME280;64266;48.798;44.756;2023-12-07T14:14:59;103321.78;;;-1.34;61.34
75668;BME280;64266;48.798;44.756;2023-12-07T14:20:06;103340.84;;;-1.34;61.64
75668;BME280;64266;48.798;44.756;2023-12-07T14:25:30;103323.88;;;-1.58;62.42
75668;BME280;64266;48.798;44.756;2023-12-07T14:30:33;103356.91;;;-1.26;63.11
75668;BME280;64266;48.798;44.756;2023-12-07T14:35:37;103354.16;;;-1.23;62.43
75668;BME280;64266;48.798;44.756;2023-12-07T14:40:41;103363.63;;;-1.04;60.71
75668;BME280;64266;48.798;44.756;2023-12-07T14:45:43;103356.06;;;-1.09;61.09
75668;BME280;64266;48.798;44.756;2023-12-07T14:50:47;103333.28;;;-1.21;61.12
75668;BME280;64266;48.798;44.756;2023-12-07T14:55:51;103281.53;;;-1.61;60.79
75668;BME280;64266;48.798;44.756;2023-12-07T15:00:54;103368.97;;;-1.23;60.73
75668;BME280;64266;48.798;44.756;2023-12-07T15:05:57;103311.53;;;-1.37;61.01
75668;BME280;64266;48.798;44.756;2023-12-07T15:11:00;103399.94;;;-0.84;60.76
75668;BME280;64266;48.798;44.756;2023-12-07T15:16:03;103369.47;;;-0.99;60.58
75668;BME280;64266;48.798;44.756;2023-12-07T15:21:07;103332.97;;;-1.15;61.38
75668;BME280;64266;48.798;44.756;2023-12-07T15:26:10;103367.94;;;-1.03;59.46
75668;BME280;64266;48.798;44.756;2023-12-07T15:31:13;103348.97;;;-1.05;59.76
75668;BME280;64266;48.798;44.756;2023-12-07T15:36:18;103386.16;;;-0.86;61.17
75668;BME280;64266;48.798;44.756;2023-12-07T15:41:21;103361.16;;;-1.23;60.62
75668;BME280;64266;48.798;44.756;2023-12-07T15:46:24;103393.59;;;-1.13;60.45
75668;BME280;64266;48.798;44.756;2023-12-07T15:51:28;103378.03;;;-1.32;60.46
75668;BME280;64266;48.798;44.756;2023-12-07T15:56:31;103380.66;;;-1.15;60.34
75668;BME280;64266;48.798;44.756;2023-12-07T16:01:34;103383.34;;;-1.16;60.47
75668;BME280;64266;48.798;44.756;2023-12-07T16:06:37;103359.53;;;-1.26;60.26
75668;BME280;64266;48.798;44.756;2023-12-07T16:11:41;103320.66;;;-1.46;60.49
75668;BME280;64266;48.798;44.756;2023-12-07T16:16:45;103395.19;;;-1.11;60.64
75668;BME280;64266;48.798;44.756;2023-12-07T16:21:50;103319.25;;;-1.70;61.13
75668;BME280;64266;48.798;44.756;2023-12-07T16:26:54;103416.19;;;-0.96;60.80
75668;BME280;64266;48.798;44.756;2023-12-07T16:31:58;103383.81;;;-1.08;60.70
75668;BME280;64266;48.798;44.756;2023-12-07T16:37:01;103370.78;;;-1.25;60.83
75668;BME280;64266;48.798;44.756;2023-12-07T16:42:05;103326.00;;;-1.49;60.71
75668;BME280;64266;48.798;44.756;2023-12-07T16:47:08;103392.91;;;-1.17;61.45
75668;BME280;64266;48.798;44.756;2023-12-07T16:52:12;103409.59;;;-1.21;59.91
75668;BME280;64266;48.798;44.756;2023-12-07T16:57:15;103397.91;;;-1.29;60.65
75668;BME280;64266;48.798;44.756;2023-12-07T17:02:18;103300.41;;;-1.92;60.41
75668;BME280;64266;48.798;44.756;2023-12-07T17:07:22;103370.25;;;-1.49;60.55
75668;BME280;64266;48.798;44.756;2023-12-07T17:12:25;103384.56;;;-1.40;60.64
75668;BME280;64266;48.798;44.756;2023-12-07T17:17:28;103403.53;;;-1.38;60.26
75668;BME280;64266;48.798;44.756;2023-12-07T17:22:31;103381.19;;;-1.42;59.93
75668;BME280;64266;48.798;44.756;2023-12-07T17:27:37;103391.22;;;-1.35;60.83
75668;BME280;64266;48.798;44.756;2023-12-07T17:32:43;103387.41;;;-1.45;60.76
75668;BME280;64266;48.798;44.756;2023-12-07T17:37:46;103382.09;;;-1.43;60.53
75668;BME280;64266;48.798;44.756;2023-12-07T17:42:55;103412.31;;;-1.41;60.62
75668;BME280;64266;48.798;44.756;2023-12-07T17:47:58;103385.91;;;-1.68;61.62
75668;BME280;64266;48.798;44.756;2023-12-07T17:53:04;103420.81;;;-1.54;61.39
75668;BME280;64266;48.798;44.756;2023-12-07T17:58:10;103447.34;;;-1.29;62.43
75668;BME280;64266;48.798;44.756;2023-12-07T18:03:12;103391.50;;;-1.58;61.22
75668;BME280;64266;48.798;44.756;2023-12-07T18:08:20;103441.19;;;-1.45;61.52
75668;BME280;64266;48.798;44.756;2023-12-07T18:13:23;103386.47;;;-1.80;62.47
75668;BME280;64266;48.798;44.756;2023-12-07T18:18:26;103405.81;;;-1.67;61.52
75668;BME280;64266;48.798;44.756;2023-12-07T18:23:29;103444.06;;;-1.33;61.89
75668;BME280;64266;48.798;44.756;2023-12-07T18:28:38;103441.75;;;-1.22;61.56
75668;BME280;64266;48.798;44.756;2023-12-07T18:33:42;103439.66;;;-1.32;61.71
75668;BME280;64266;48.798;44.756;2023-12-07T18:38:46;103437.22;;;-1.35;62.02
75668;BME280;64266;48.798;44.756;2023-12-07T18:43:49;103405.47;;;-1.42;61.37
75668;BME280;64266;48.798;44.756;2023-12-07T18:48:52;103388.06;;;-1.58;61.75
75668;BME280;64266;48.798;44.756;2023-12-07T18:53:56;103421.53;;;-1.34;61.90
75668;BME280;64266;48.798;44.756;2023-12-07T18:58:59;103440.03;;;-1.40;62.65
75668;BME280;64266;48.798;44.756;2023-12-07T19:04:05;103350.94;;;-1.79;61.67
75668;BME280;64266;48.798;44.756;2023-12-07T19:09:11;103381.25;;;-1.61;62.52
75668;BME280;64266;48.798;44.756;2023-12-07T19:14:15;103402.59;;;-1.54;62.13
75668;BME280;64266;48.798;44.756;2023-12-07T19:19:23;103373.50;;;-1.63;62.24
75668;BME280;64266;48.798;44.756;2023-12-07T19:24:29;103399.63;;;-1.47;61.82
75668;BME280;64266;48.798;44.756;2023-12-07T19:29:33;103387.44;;;-1.63;62.71
75668;BME280;64266;48.798;44.756;2023-12-07T19:34:39;103404.50;;;-1.58;62.77
75668;BME280;64266;48.798;44.756;2023-12-07T19:39:42;103411.56;;;-1.43;61.93
75668;BME280;64266;48.798;44.756;2023-12-07T19:44:51;103437.31;;;-1.37;62.36
75668;BME280;64266;48.798;44.756;2023-12-07T19:49:55;103391.84;;;-1.66;62.99
75668;BME280;64266;48.798;44.756;2023-12-07T19:54:58;103394.19;;;-1.78;62.35
75668;BME280;64266;48.798;44.756;2023-12-07T20:00:09;103420.03;;;-1.56;62.29
75668;BME280;64266;48.798;44.756;2023-12-07T20:05:13;103375.63;;;-1.71;62.61
75668;BME280;64266;48.798;44.756;2023-12-07T20:10:16;103411.44;;;-1.40;62.11
75668;BME280;64266;48.798;44.756;2023-12-07T20:15:19;103428.47;;;-1.51;61.59
75668;BME280;64266;48.798;44.756;2023-12-07T20:20:22;103422.63;;;-1.56;62.32
75668;BME280;64266;48.798;44.756;2023-12-07T20:25:26;103441.34;;;-1.31;61.79
75668;BME280;64266;48.798;44.756;2023-12-07T20:30:29;103439.38;;;-1.26;62.09
75668;BME280;64266;48.798;44.756;2023-12-07T20:35:31;103401.31;;;-1.46;60.35
75668;BME280;64266;48.798;44.756;2023-12-07T20:40:35;103435.41;;;-1.33;60.84
75668;BME280;64266;48.798;44.756;2023-12-07T20:45:38;103390.69;;;-1.77;61.22
75668;BME280;64266;48.798;44.756;2023-12-07T20:50:41;103370.81;;;-1.97;61.16
75668;BME280;64266;48.798;44.756;2023-12-07T20:55:45;103377.97;;;-1.83;60.68
75668;BME280;64266;48.798;44.756;2023-12-07T21:00:48;103467.78;;;-1.39;60.81
75668;BME280;64266;48.798;44.756;2023-12-07T21:05:52;103412.16;;;-1.55;61.37
75668;BME280;64266;48.798;44.756;2023-12-07T21:10:55;103417.28;;;-1.53;61.07
75668;BME280;64266;48.798;44.756;2023-12-07T21:15:58;103431.09;;;-1.51;60.99
75668;BME280;64266;48.798;44.756;2023-12-07T21:21:01;103424.47;;;-1.58;60.32
75668;BME280;64266;48.798;44.756;2023-12-07T21:26:10;103421.75;;;-1.74;61.13
75668;BME280;64266;48.798;44.756;2023-12-07T21:31:14;103478.63;;;-1.48;60.25
75668;BME280;64266;48.798;44.756;2023-12-07T21:36:21;103443.44;;;-1.56;61.07
75668;BME280;64266;48.798;44.756;2023-12-07T21:41:24;103426.28;;;-1.42;61.34
75668;BME280;64266;48.798;44.756;2023-12-07T21:46:27;103416.69;;;-1.41;60.00
75668;BME280;64266;48.798;44.756;2023-12-07T21:51:30;103438.06;;;-1.35;60.15
75668;BME280;64266;48.798;44.756;2023-12-07T21:56:33;103385.47;;;-1.94;59.91
75668;BME280;64266;48.798;44.756;2023-12-07T22:01:36;103455.69;;;-1.58;59.80
75668;BME280;64266;48.798;44.756;2023-12-07T22:06:39;103466.56;;;-1.50;60.00
75668;BME280;64266;48.798;44.756;2023-12-07T22:11:45;103458.91;;;-1.53;58.97
75668;BME280;64266;48.798;44.756;2023-12-07T22:16:48;103406.69;;;-2.03;58.93
75668;BME280;64266;48.798;44.756;2023-12-07T22:21:51;103461.13;;;-1.82;59.40
75668;BME280;64266;48.798;44.756;2023-12-07T22:26:54;103454.81;;;-1.95;58.90
75668;BME280;64266;48.798;44.756;2023-12-07T22:31:58;103427.97;;;-1.95;60.23
75668;BME280;64266;48.798;44.756;2023-12-07T22:37:01;103437.75;;;-2.00;59.81
75668;BME280;64266;48.798;44.756;2023-12-07T22:42:05;103477.63;;;-1.45;59.64
75668;BME280;64266;48.798;44.756;2023-12-07T22:47:08;103412.78;;;-1.86;58.76
75668;BME280;64266;48.798;44.756;2023-12-07T22:52:11;103418.59;;;-2.18;59.04
75668;BME280;64266;48.798;44.756;2023-12-07T22:57:14;103436.16;;;-2.23;59.81
75668;BME280;64266;48.798;44.756;2023-12-07T23:02:17;103479.09;;;-1.96;59.80
75668;BME280;64266;48.798;44.756;2023-12-07T23:07:20;103462.94;;;-1.84;59.06
75668;BME280;64266;48.798;44.756;2023-12-07T23:12:23;103452.19;;;-2.13;58.52
75668;BME280;64266;48.798;44.756;2023-12-07T23:17:26;103424.84;;;-2.41;58.84
75668;BME280;64266;48.798;44.756;2023-12-07T23:22:30;103458.25;;;-2.13;58.78
75668;BME280;64266;48.798;44.756;2023-12-07T23:27:35;103471.41;;;-1.97;58.39
75668;BME280;64266;48.798;44.756;2023-12-07T23:32:38;103486.28;;;-2.01;58.00
75668;BME280;64266;48.798;44.756;2023-12-07T23:37:41;103472.22;;;-1.97;58.84
75668;BME280;64266;48.798;44.756;2023-12-07T23:42:44;103489.59;;;-1.97;58.38
75668;BME280;64266;48.798;44.756;2023-12-07T23:47:47;103398.63;;;-2.55;58.83
75668;BME280;64266;48.798;44.756;2023-12-07T23:52:50;103380.84;;;-2.64;58.90
75668;BME280;64266;48.798;44.756;2023-12-07T23:57:53;103453.09;;;-2.14;57.48
